Terminal Aerodrome Forecast
Issued by NWS

Home | Current Version | Previous Version | Graphics & Text | Print | Product List | Glossary On
Versions: 1 2 3 4 5 6 7 8 9 10 11 12 13 14 15 16 17 18 19
000
FTUS43 KMPX 070520
TAFAXN
TAF
KAXN 070520Z 0706/0806 28021G28KT 1 1/2SM -SN BR OVC015
     FM071200 28018G26KT 5SM -SN BR OVC025
     FM071700 29022G30KT 1 1/2SM -SN BR OVC015=

USA.gov is the U.S. government's official web portal to all federal, state and local government web resources and services.